sensor_id;sensor_type;location;lat;lon;timestamp;temperature;humidity
26414;DHT22;14108;53.668;10.288;2023-01-01T00:01:21;16.20;66.50
26414;DHT22;14108;53.668;10.288;2023-01-01T00:03:49;16.30;66.60
26414;DHT22;14108;53.668;10.288;2023-01-01T00:06:17;16.30;66.30
26414;DHT22;14108;53.668;10.288;2023-01-01T00:11:20;16.30;65.80
26414;DHT22;14108;53.668;10.288;2023-01-01T00:13:49;16.40;65.80
26414;DHT22;14108;53.668;10.288;2023-01-01T00:16:16;16.40;65.80
26414;DHT22;14108;53.668;10.288;2023-01-01T00:18:46;16.30;65.40
26414;DHT22;14108;53.668;10.288;2023-01-01T00:21:13;16.30;65.60
26414;DHT22;14108;53.668;10.288;2023-01-01T00:23:41;16.30;65.20
26414;DHT22;14108;53.668;10.288;2023-01-01T00:26:09;16.30;65.10
26414;DHT22;14108;53.668;10.288;2023-01-01T00:28:37;16.40;65.30
26414;DHT22;14108;53.668;10.288;2023-01-01T00:31:07;16.40;65.60
26414;DHT22;14108;53.668;10.288;2023-01-01T00:33:34;16.30;65.10
26414;DHT22;14108;53.668;10.288;2023-01-01T00:36:07;16.30;64.80
26414;DHT22;14108;53.668;10.288;2023-01-01T00:38:34;16.40;64.70
26414;DHT22;14108;53.668;10.288;2023-01-01T00:41:02;16.40;64.70
26414;DHT22;14108;53.668;10.288;2023-01-01T00:43:29;16.40;64.70
26414;DHT22;14108;53.668;10.288;2023-01-01T00:45:57;16.40;65.10
26414;DHT22;14108;53.668;10.288;2023-01-01T00:48:24;16.40;65.00
26414;DHT22;14108;53.668;10.288;2023-01-01T00:50:52;16.40;65.10
26414;DHT22;14108;53.668;10.288;2023-01-01T00:53:20;16.40;64.50
26414;DHT22;14108;53.668;10.288;2023-01-01T00:55:48;16.40;64.60
26414;DHT22;14108;53.668;10.288;2023-01-01T00:58:17;16.40;64.40
26414;DHT22;14108;53.668;10.288;2023-01-01T01:00:44;16.40;64.00
26414;DHT22;14108;53.668;10.288;2023-01-01T01:03:12;16.40;64.10
26414;DHT22;14108;53.668;10.288;2023-01-01T01:05:53;16.40;64.30
26414;DHT22;14108;53.668;10.288;2023-01-01T01:08:20;16.40;64.10
26414;DHT22;14108;53.668;10.288;2023-01-01T01:10:47;16.40;64.60
26414;DHT22;14108;53.668;10.288;2023-01-01T01:13:15;16.50;64.20
26414;DHT22;14108;53.668;10.288;2023-01-01T01:15:42;16.50;64.10
26414;DHT22;14108;53.668;10.288;2023-01-01T01:18:09;16.50;64.50
26414;DHT22;14108;53.668;10.288;2023-01-01T01:20:36;16.50;64.10
26414;DHT22;14108;53.668;10.288;2023-01-01T01:23:03;16.50;64.20
26414;DHT22;14108;53.668;10.288;2023-01-01T01:25:31;16.50;64.10
26414;DHT22;14108;53.668;10.288;2023-01-01T01:27:58;16.60;64.20
26414;DHT22;14108;53.668;10.288;2023-01-01T01:30:25;16.60;63.80
26414;DHT22;14108;53.668;10.288;2023-01-01T01:32:52;16.60;63.80
26414;DHT22;14108;53.668;10.288;2023-01-01T01:35:19;16.60;64.20
26414;DHT22;14108;53.668;10.288;2023-01-01T01:37:46;16.60;64.10
26414;DHT22;14108;53.668;10.288;2023-01-01T01:40:14;16.60;63.40
26414;DHT22;14108;53.668;10.288;2023-01-01T01:42:46;16.60;63.30
26414;DHT22;14108;53.668;10.288;2023-01-01T01:45:14;16.50;63.40
26414;DHT22;14108;53.668;10.288;2023-01-01T01:47:47;16.60;63.50
26414;DHT22;14108;53.668;10.288;2023-01-01T01:50:20;16.50;63.30
26414;DHT22;14108;53.668;10.288;2023-01-01T01:53:03;16.60;63.60
26414;DHT22;14108;53.668;10.288;2023-01-01T01:55:35;16.60;63.60
26414;DHT22;14108;53.668;10.288;2023-01-01T01:58:04;16.60;62.90
26414;DHT22;14108;53.668;10.288;2023-01-01T02:00:31;16.70;63.40
26414;DHT22;14108;53.668;10.288;2023-01-01T02:03:02;16.60;63.20
26414;DHT22;14108;53.668;10.288;2023-01-01T02:05:31;16.70;63.50
26414;DHT22;14108;53.668;10.288;2023-01-01T02:08:00;16.70;62.90
26414;DHT22;14108;53.668;10.288;2023-01-01T02:10:29;16.70;63.00
26414;DHT22;14108;53.668;10.288;2023-01-01T02:12:56;16.70;62.90
26414;DHT22;14108;53.668;10.288;2023-01-01T02:15:29;16.60;62.80
26414;DHT22;14108;53.668;10.288;2023-01-01T02:18:00;16.60;62.40
26414;DHT22;14108;53.668;10.288;2023-01-01T02:20:37;16.60;62.80
26414;DHT22;14108;53.668;10.288;2023-01-01T02:23:33;16.70;62.80
26414;DHT22;14108;53.668;10.288;2023-01-01T02:26:16;16.60;62.60
26414;DHT22;14108;53.668;10.288;2023-01-01T02:28:54;16.60;62.40
26414;DHT22;14108;53.668;10.288;2023-01-01T02:31:28;16.60;62.10
26414;DHT22;14108;53.668;10.288;2023-01-01T02:34:00;16.60;62.60
26414;DHT22;14108;53.668;10.288;2023-01-01T02:36:30;16.60;62.50
26414;DHT22;14108;53.668;10.288;2023-01-01T02:39:00;16.70;62.40
26414;DHT22;14108;53.668;10.288;2023-01-01T02:41:30;16.70;63.20
26414;DHT22;14108;53.668;10.288;2023-01-01T02:43:59;16.70;63.70
26414;DHT22;14108;53.668;10.288;2023-01-01T02:46:31;16.60;64.20
26414;DHT22;14108;53.668;10.288;2023-01-01T02:48:58;16.60;64.10
26414;DHT22;14108;53.668;10.288;2023-01-01T02:51:32;16.50;63.60
26414;DHT22;14108;53.668;10.288;2023-01-01T02:54:06;16.60;64.10
26414;DHT22;14108;53.668;10.288;2023-01-01T02:56:39;16.60;63.80
26414;DHT22;14108;53.668;10.288;2023-01-01T02:59:17;16.50;64.30
26414;DHT22;14108;53.668;10.288;2023-01-01T03:02:11;16.50;64.40
26414;DHT22;14108;53.668;10.288;2023-01-01T03:04:50;16.50;64.60
26414;DHT22;14108;53.668;10.288;2023-01-01T03:07:25;16.50;64.30
26414;DHT22;14108;53.668;10.288;2023-01-01T03:09:58;16.40;64.20
26414;DHT22;14108;53.668;10.288;2023-01-01T03:12:32;16.40;64.40
26414;DHT22;14108;53.668;10.288;2023-01-01T03:15:12;16.40;64.70
26414;DHT22;14108;53.668;10.288;2023-01-01T03:17:44;16.40;64.40
26414;DHT22;14108;53.668;10.288;2023-01-01T03:20:15;16.40;64.30
26414;DHT22;14108;53.668;10.288;2023-01-01T03:22:45;16.40;64.60
26414;DHT22;14108;53.668;10.288;2023-01-01T03:25:18;16.40;64.40
26414;DHT22;14108;53.668;10.288;2023-01-01T03:27:50;16.40;64.90
26414;DHT22;14108;53.668;10.288;2023-01-01T03:30:19;16.40;65.00
26414;DHT22;14108;53.668;10.288;2023-01-01T03:32:51;16.40;65.40
26414;DHT22;14108;53.668;10.288;2023-01-01T03:35:33;16.40;65.50
26414;DHT22;14108;53.668;10.288;2023-01-01T03:38:02;16.40;66.30
26414;DHT22;14108;53.668;10.288;2023-01-01T03:40:32;16.40;66.30
26414;DHT22;14108;53.668;10.288;2023-01-01T03:43:04;16.40;66.40
26414;DHT22;14108;53.668;10.288;2023-01-01T03:45:37;16.40;66.70
26414;DHT22;14108;53.668;10.288;2023-01-01T03:48:06;16.40;66.60
26414;DHT22;14108;53.668;10.288;2023-01-01T03:50:42;16.40;66.50
26414;DHT22;14108;53.668;10.288;2023-01-01T03:53:20;16.30;66.40
26414;DHT22;14108;53.668;10.288;2023-01-01T03:55:59;16.30;66.60
26414;DHT22;14108;53.668;10.288;2023-01-01T03:58:34;16.30;66.40
26414;DHT22;14108;53.668;10.288;2023-01-01T04:01:09;16.20;66.50
26414;DHT22;14108;53.668;10.288;2023-01-01T04:03:37;16.20;66.50
26414;DHT22;14108;53.668;10.288;2023-01-01T04:06:08;16.30;66.30
26414;DHT22;14108;53.668;10.288;2023-01-01T04:08:37;16.30;66.40
26414;DHT22;14108;53.668;10.288;2023-01-01T04:11:08;16.30;65.90
26414;DHT22;14108;53.668;10.288;2023-01-01T04:13:56;16.30;66.30
26414;DHT22;14108;53.668;10.288;2023-01-01T04:16:23;16.20;66.10
26414;DHT22;14108;53.668;10.288;2023-01-01T04:18:51;16.20;66.00
26414;DHT22;14108;53.668;10.288;2023-01-01T04:21:18;16.20;66.10
26414;DHT22;14108;53.668;10.288;2023-01-01T04:23:45;16.20;66.10
26414;DHT22;14108;53.668;10.288;2023-01-01T04:26:13;16.20;66.30
26414;DHT22;14108;53.668;10.288;2023-01-01T04:28:40;16.20;66.50
26414;DHT22;14108;53.668;10.288;2023-01-01T04:31:08;16.30;66.20
26414;DHT22;14108;53.668;10.288;2023-01-01T04:33:35;16.30;66.10
26414;DHT22;14108;53.668;10.288;2023-01-01T04:36:04;16.30;66.20
26414;DHT22;14108;53.668;10.288;2023-01-01T04:38:33;16.30;66.10
26414;DHT22;14108;53.668;10.288;2023-01-01T04:41:20;16.30;65.90
26414;DHT22;14108;53.668;10.288;2023-01-01T04:43:47;16.30;66.00
26414;DHT22;14108;53.668;10.288;2023-01-01T04:46:17;16.30;66.10
26414;DHT22;14108;53.668;10.288;2023-01-01T04:48:45;16.30;65.90
26414;DHT22;14108;53.668;10.288;2023-01-01T04:51:14;16.30;65.70
26414;DHT22;14108;53.668;10.288;2023-01-01T04:53:41;16.30;65.90
26414;DHT22;14108;53.668;10.288;2023-01-01T04:56:11;16.30;66.10
26414;DHT22;14108;53.668;10.288;2023-01-01T04:58:40;16.30;66.00
26414;DHT22;14108;53.668;10.288;2023-01-01T05:01:14;16.30;65.60
26414;DHT22;14108;53.668;10.288;2023-01-01T05:06:18;16.30;65.50
26414;DHT22;14108;53.668;10.288;2023-01-01T05:08:48;16.20;65.40
26414;DHT22;14108;53.668;10.288;2023-01-01T05:11:17;16.30;65.80
26414;DHT22;14108;53.668;10.288;2023-01-01T05:13:46;16.30;65.30
26414;DHT22;14108;53.668;10.288;2023-01-01T05:16:14;16.30;65.40
26414;DHT22;14108;53.668;10.288;2023-01-01T05:18:43;16.30;65.50
26414;DHT22;14108;53.668;10.288;2023-01-01T05:21:12;16.30;65.40
26414;DHT22;14108;53.668;10.288;2023-01-01T05:23:40;16.30;65.20
26414;DHT22;14108;53.668;10.288;2023-01-01T05:26:10;16.30;65.90
26414;DHT22;14108;53.668;10.288;2023-01-01T05:28:38;16.30;64.90
26414;DHT22;14108;53.668;10.288;2023-01-01T05:33:43;16.30;64.50
26414;DHT22;14108;53.668;10.288;2023-01-01T05:36:14;16.30;64.50
26414;DHT22;14108;53.668;10.288;2023-01-01T05:38:42;16.20;65.20
26414;DHT22;14108;53.668;10.288;2023-01-01T05:41:11;16.30;64.60
26414;DHT22;14108;53.668;10.288;2023-01-01T05:43:39;16.20;64.00
26414;DHT22;14108;53.668;10.288;2023-01-01T05:46:10;16.30;63.20
26414;DHT22;14108;53.668;10.288;2023-01-01T05:48:38;16.30;63.60
26414;DHT22;14108;53.668;10.288;2023-01-01T05:51:07;16.30;63.40
26414;DHT22;14108;53.668;10.288;2023-01-01T05:53:34;16.30;63.50
26414;DHT22;14108;53.668;10.288;2023-01-01T05:56:02;16.30;63.60
26414;DHT22;14108;53.668;10.288;2023-01-01T05:58:30;16.40;63.30
26414;DHT22;14108;53.668;10.288;2023-01-01T06:01:05;16.40;63.40
26414;DHT22;14108;53.668;10.288;2023-01-01T06:03:33;16.40;62.70
26414;DHT22;14108;53.668;10.288;2023-01-01T06:06:04;16.40;62.90
26414;DHT22;14108;53.668;10.288;2023-01-01T06:08:31;16.40;63.10
26414;DHT22;14108;53.668;10.288;2023-01-01T06:10:59;16.40;62.20
26414;DHT22;14108;53.668;10.288;2023-01-01T06:13:27;16.40;62.40
26414;DHT22;14108;53.668;10.288;2023-01-01T06:18:31;16.40;61.50
26414;DHT22;14108;53.668;10.288;2023-01-01T06:21:04;16.50;61.50
26414;DHT22;14108;53.668;10.288;2023-01-01T06:23:31;16.50;61.40
26414;DHT22;14108;53.668;10.288;2023-01-01T06:26:05;16.50;60.90
26414;DHT22;14108;53.668;10.288;2023-01-01T06:31:00;16.50;61.90
26414;DHT22;14108;53.668;10.288;2023-01-01T06:33:27;16.40;61.00
26414;DHT22;14108;53.668;10.288;2023-01-01T06:35:55;16.40;61.40
26414;DHT22;14108;53.668;10.288;2023-01-01T06:38:22;16.40;60.50
26414;DHT22;14108;53.668;10.288;2023-01-01T06:40:56;16.40;60.80
26414;DHT22;14108;53.668;10.288;2023-01-01T06:43:23;16.40;60.80
26414;DHT22;14108;53.668;10.288;2023-01-01T06:45:59;16.40;60.70
26414;DHT22;14108;53.668;10.288;2023-01-01T06:48:28;16.40;60.80
26414;DHT22;14108;53.668;10.288;2023-01-01T06:50:56;16.40;59.80
26414;DHT22;14108;53.668;10.288;2023-01-01T06:53:26;16.40;60.00
26414;DHT22;14108;53.668;10.288;2023-01-01T06:55:53;16.40;60.80
26414;DHT22;14108;53.668;10.288;2023-01-01T06:58:20;16.40;60.20
26414;DHT22;14108;53.668;10.288;2023-01-01T07:00:47;16.40;59.90
26414;DHT22;14108;53.668;10.288;2023-01-01T07:03:15;16.40;60.50
26414;DHT22;14108;53.668;10.288;2023-01-01T07:05:42;16.40;60.10
26414;DHT22;14108;53.668;10.288;2023-01-01T07:08:09;16.40;60.00
26414;DHT22;14108;53.668;10.288;2023-01-01T07:10:36;16.40;59.70
26414;DHT22;14108;53.668;10.288;2023-01-01T07:13:03;16.40;59.90
26414;DHT22;14108;53.668;10.288;2023-01-01T07:15:30;16.40;60.10
26414;DHT22;14108;53.668;10.288;2023-01-01T07:17:57;16.40;59.80
26414;DHT22;14108;53.668;10.288;2023-01-01T07:20:24;16.40;60.10
26414;DHT22;14108;53.668;10.288;2023-01-01T07:22:52;16.40;60.00
26414;DHT22;14108;53.668;10.288;2023-01-01T07:25:19;16.30;59.70
26414;DHT22;14108;53.668;10.288;2023-01-01T07:27:46;16.30;59.60
26414;DHT22;14108;53.668;10.288;2023-01-01T07:32:54;16.40;59.90
26414;DHT22;14108;53.668;10.288;2023-01-01T07:35:22;16.40;60.00
26414;DHT22;14108;53.668;10.288;2023-01-01T07:37:49;16.30;59.60
26414;DHT22;14108;53.668;10.288;2023-01-01T07:40:16;16.30;59.90
26414;DHT22;14108;53.668;10.288;2023-01-01T07:42:43;16.30;59.70
26414;DHT22;14108;53.668;10.288;2023-01-01T07:45:12;16.30;59.40
26414;DHT22;14108;53.668;10.288;2023-01-01T07:47:39;16.30;59.30
26414;DHT22;14108;53.668;10.288;2023-01-01T07:50:09;16.20;59.50
26414;DHT22;14108;53.668;10.288;2023-01-01T07:52:40;16.20;59.40
26414;DHT22;14108;53.668;10.288;2023-01-01T07:55:11;16.20;59.90
26414;DHT22;14108;53.668;10.288;2023-01-01T07:57:39;16.20;59.90
26414;DHT22;14108;53.668;10.288;2023-01-01T08:00:09;16.20;59.70
26414;DHT22;14108;53.668;10.288;2023-01-01T08:02:36;16.20;59.90
26414;DHT22;14108;53.668;10.288;2023-01-01T08:05:05;16.20;59.00
26414;DHT22;14108;53.668;10.288;2023-01-01T08:07:32;16.20;59.60
26414;DHT22;14108;53.668;10.288;2023-01-01T08:09:59;16.20;59.10
26414;DHT22;14108;53.668;10.288;2023-01-01T08:12:26;16.20;58.90
26414;DHT22;14108;53.668;10.288;2023-01-01T08:14:54;16.20;58.80
26414;DHT22;14108;53.668;10.288;2023-01-01T08:17:21;16.20;58.90
26414;DHT22;14108;53.668;10.288;2023-01-01T08:19:48;16.20;58.50
26414;DHT22;14108;53.668;10.288;2023-01-01T08:22:16;16.20;57.80
26414;DHT22;14108;53.668;10.288;2023-01-01T08:24:43;16.20;58.30
26414;DHT22;14108;53.668;10.288;2023-01-01T08:27:12;16.10;59.00
26414;DHT22;14108;53.668;10.288;2023-01-01T08:29:39;16.10;58.90
26414;DHT22;14108;53.668;10.288;2023-01-01T08:32:07;16.10;58.90
26414;DHT22;14108;53.668;10.288;2023-01-01T08:34:34;16.10;58.80
26414;DHT22;14108;53.668;10.288;2023-01-01T08:37:01;16.10;59.10
26414;DHT22;14108;53.668;10.288;2023-01-01T08:39:28;16.10;58.90
26414;DHT22;14108;53.668;10.288;2023-01-01T08:41:55;16.10;58.40
26414;DHT22;14108;53.668;10.288;2023-01-01T08:44:23;16.10;58.80
26414;DHT22;14108;53.668;10.288;2023-01-01T08:46:52;16.10;58.60
26414;DHT22;14108;53.668;10.288;2023-01-01T08:49:19;16.10;58.20
26414;DHT22;14108;53.668;10.288;2023-01-01T08:51:46;16.00;58.50
26414;DHT22;14108;53.668;10.288;2023-01-01T08:54:13;16.00;58.40
26414;DHT22;14108;53.668;10.288;2023-01-01T08:56:40;16.00;58.50
26414;DHT22;14108;53.668;10.288;2023-01-01T08:59:07;16.00;58.60
26414;DHT22;14108;53.668;10.288;2023-01-01T09:01:35;16.00;58.80
26414;DHT22;14108;53.668;10.288;2023-01-01T09:04:02;16.00;58.20
26414;DHT22;14108;53.668;10.288;2023-01-01T09:06:29;16.00;58.40
26414;DHT22;14108;53.668;10.288;2023-01-01T09:08:57;16.00;57.90
26414;DHT22;14108;53.668;10.288;2023-01-01T09:11:25;16.00;57.70
26414;DHT22;14108;53.668;10.288;2023-01-01T09:13:53;16.00;58.10
26414;DHT22;14108;53.668;10.288;2023-01-01T09:16:21;16.00;57.80
26414;DHT22;14108;53.668;10.288;2023-01-01T09:18:48;16.00;58.10
26414;DHT22;14108;53.668;10.288;2023-01-01T09:21:16;16.00;57.80
26414;DHT22;14108;53.668;10.288;2023-01-01T09:23:43;15.90;57.70
26414;DHT22;14108;53.668;10.288;2023-01-01T09:26:10;15.90;58.50
26414;DHT22;14108;53.668;10.288;2023-01-01T09:28:37;15.90;58.50
26414;DHT22;14108;53.668;10.288;2023-01-01T09:31:05;15.90;58.10
26414;DHT22;14108;53.668;10.288;2023-01-01T09:33:32;15.90;58.00
26414;DHT22;14108;53.668;10.288;2023-01-01T09:36:15;15.90;57.50
26414;DHT22;14108;53.668;10.288;2023-01-01T09:38:52;15.90;57.20
26414;DHT22;14108;53.668;10.288;2023-01-01T09:41:23;15.90;57.00
26414;DHT22;14108;53.668;10.288;2023-01-01T09:43:59;15.80;57.70
26414;DHT22;14108;53.668;10.288;2023-01-01T09:46:27;15.80;57.40
26414;DHT22;14108;53.668;10.288;2023-01-01T09:48:57;15.90;57.60
26414;DHT22;14108;53.668;10.288;2023-01-01T09:51:29;15.90;57.70
26414;DHT22;14108;53.668;10.288;2023-01-01T09:54:05;15.90;57.30
26414;DHT22;14108;53.668;10.288;2023-01-01T09:56:35;15.90;58.20
26414;DHT22;14108;53.668;10.288;2023-01-01T09:59:02;15.90;58.30
26414;DHT22;14108;53.668;10.288;2023-01-01T10:01:37;15.90;57.80
26414;DHT22;14108;53.668;10.288;2023-01-01T10:04:22;15.90;57.90
26414;DHT22;14108;53.668;10.288;2023-01-01T10:06:59;16.00;56.90
26414;DHT22;14108;53.668;10.288;2023-01-01T10:09:33;15.90;57.90
26414;DHT22;14108;53.668;10.288;2023-01-01T10:12:11;16.00;57.90
26414;DHT22;14108;53.668;10.288;2023-01-01T10:14:44;15.90;58.20
26414;DHT22;14108;53.668;10.288;2023-01-01T10:17:16;15.90;58.20
26414;DHT22;14108;53.668;10.288;2023-01-01T10:19:46;15.80;57.00
26414;DHT22;14108;53.668;10.288;2023-01-01T10:22:19;15.90;56.70
26414;DHT22;14108;53.668;10.288;2023-01-01T10:24:50;15.90;56.20
26414;DHT22;14108;53.668;10.288;2023-01-01T10:27:29;15.90;56.90
26414;DHT22;14108;53.668;10.288;2023-01-01T10:29:57;15.90;56.70
26414;DHT22;14108;53.668;10.288;2023-01-01T10:32:29;15.90;56.80
26414;DHT22;14108;53.668;10.288;2023-01-01T10:34:57;15.90;56.50
26414;DHT22;14108;53.668;10.288;2023-01-01T10:37:29;15.90;56.60
26414;DHT22;14108;53.668;10.288;2023-01-01T10:39:57;16.00;56.90
26414;DHT22;14108;53.668;10.288;2023-01-01T10:42:25;15.90;57.60
26414;DHT22;14108;53.668;10.288;2023-01-01T10:44:53;15.90;58.40
26414;DHT22;14108;53.668;10.288;2023-01-01T10:47:26;16.00;58.00
26414;DHT22;14108;53.668;10.288;2023-01-01T10:49:56;16.00;57.60
26414;DHT22;14108;53.668;10.288;2023-01-01T10:52:34;16.00;57.30
26414;DHT22;14108;53.668;10.288;2023-01-01T10:55:02;16.00;57.50
26414;DHT22;14108;53.668;10.288;2023-01-01T10:57:35;16.00;57.50
26414;DHT22;14108;53.668;10.288;2023-01-01T11:00:18;16.10;58.00
26414;DHT22;14108;53.668;10.288;2023-01-01T11:02:46;16.00;57.90
26414;DHT22;14108;53.668;10.288;2023-01-01T11:05:16;16.10;57.70
26414;DHT22;14108;53.668;10.288;2023-01-01T11:07:43;16.00;57.80
26414;DHT22;14108;53.668;10.288;2023-01-01T11:10:19;16.00;56.70
26414;DHT22;14108;53.668;10.288;2023-01-01T11:12:47;16.00;57.20
26414;DHT22;14108;53.668;10.288;2023-01-01T11:18:04;16.00;57.00
26414;DHT22;14108;53.668;10.288;2023-01-01T11:20:32;16.00;55.70
26414;DHT22;14108;53.668;10.288;2023-01-01T11:23:17;15.90;55.90
26414;DHT22;14108;53.668;10.288;2023-01-01T11:25:57;15.90;56.50
26414;DHT22;14108;53.668;10.288;2023-01-01T11:28:24;15.90;57.20
26414;DHT22;14108;53.668;10.288;2023-01-01T11:31:10;15.80;57.20
26414;DHT22;14108;53.668;10.288;2023-01-01T11:33:43;15.80;56.80
26414;DHT22;14108;53.668;10.288;2023-01-01T11:36:11;15.80;56.70
26414;DHT22;14108;53.668;10.288;2023-01-01T11:38:47;15.70;55.20
26414;DHT22;14108;53.668;10.288;2023-01-01T11:41:16;15.70;55.30
26414;DHT22;14108;53.668;10.288;2023-01-01T11:43:45;15.70;55.30
26414;DHT22;14108;53.668;10.288;2023-01-01T11:46:17;15.70;55.70
